sensor_id;sensor_type;location;lat;lon;timestamp;temperature;humidity
1976;DHT22;988;48.016;7.800;2023-07-16T00:01:33;19.20;99.90
1976;DHT22;988;48.016;7.800;2023-07-16T00:03:59;19.10;99.90
1976;DHT22;988;48.016;7.800;2023-07-16T00:06:24;19.10;99.90
1976;DHT22;988;48.016;7.800;2023-07-16T00:08:50;18.90;99.90
1976;DHT22;988;48.016;7.800;2023-07-16T00:11:15;18.90;99.90
1976;DHT22;988;48.016;7.800;2023-07-16T00:13:41;19.00;99.90
1976;DHT22;988;48.016;7.800;2023-07-16T00:16:11;19.00;99.90
1976;DHT22;988;48.016;7.800;2023-07-16T00:18:37;18.90;99.90
1976;DHT22;988;48.016;7.800;2023-07-16T00:21:02;18.80;99.90
1976;DHT22;988;48.016;7.800;2023-07-16T00:23:28;18.90;99.90
1976;DHT22;988;48.016;7.800;2023-07-16T00:25:53;18.90;99.90
1976;DHT22;988;48.016;7.800;2023-07-16T00:28:19;19.00;99.90
1976;DHT22;988;48.016;7.800;2023-07-16T00:30:44;19.10;99.90
1976;DHT22;988;48.016;7.800;2023-07-16T00:33:09;19.10;99.90
1976;DHT22;988;48.016;7.800;2023-07-16T00:35:35;18.90;99.90
1976;DHT22;988;48.016;7.800;2023-07-16T00:38:00;18.80;99.90
1976;DHT22;988;48.016;7.800;2023-07-16T00:40:26;18.70;99.90
1976;DHT22;988;48.016;7.800;2023-07-16T00:42:51;18.90;99.90
1976;DHT22;988;48.016;7.800;2023-07-16T00:45:17;18.70;99.90
1976;DHT22;988;48.016;7.800;2023-07-16T00:47:43;18.50;99.90
1976;DHT22;988;48.016;7.800;2023-07-16T00:50:10;18.50;99.90
1976;DHT22;988;48.016;7.800;2023-07-16T00:52:35;18.50;99.90
1976;DHT22;988;48.016;7.800;2023-07-16T00:55:01;18.40;99.90
1976;DHT22;988;48.016;7.800;2023-07-16T00:57:27;18.40;99.90
1976;DHT22;988;48.016;7.800;2023-07-16T00:59:52;18.50;99.90
1976;DHT22;988;48.016;7.800;2023-07-16T01:02:18;18.70;99.90
1976;DHT22;988;48.016;7.800;2023-07-16T01:04:43;18.50;99.90
1976;DHT22;988;48.016;7.800;2023-07-16T01:07:10;18.60;99.90
1976;DHT22;988;48.016;7.800;2023-07-16T01:09:36;18.50;99.90
1976;DHT22;988;48.016;7.800;2023-07-16T01:12:03;18.40;99.90
1976;DHT22;988;48.016;7.800;2023-07-16T01:14:30;18.40;99.90
1976;DHT22;988;48.016;7.800;2023-07-16T01:16:55;18.20;99.90
1976;DHT22;988;48.016;7.800;2023-07-16T01:19:24;18.40;99.90
1976;DHT22;988;48.016;7.800;2023-07-16T01:29:28;18.40;99.90
1976;DHT22;988;48.016;7.800;2023-07-16T01:31:59;18.30;99.90
1976;DHT22;988;48.016;7.800;2023-07-16T01:34:24;18.30;99.90
1976;DHT22;988;48.016;7.800;2023-07-16T01:36:52;18.20;99.90
1976;DHT22;988;48.016;7.800;2023-07-16T01:39:17;18.10;99.90
1976;DHT22;988;48.016;7.800;2023-07-16T01:41:43;18.00;99.90
1976;DHT22;988;48.016;7.800;2023-07-16T01:44:09;17.90;99.90
1976;DHT22;988;48.016;7.800;2023-07-16T01:46:34;17.80;99.90
1976;DHT22;988;48.016;7.800;2023-07-16T01:49:00;17.80;99.90
1976;DHT22;988;48.016;7.800;2023-07-16T01:51:25;17.60;99.90
1976;DHT22;988;48.016;7.800;2023-07-16T01:53:51;17.60;99.90
1976;DHT22;988;48.016;7.800;2023-07-16T01:56:16;17.60;99.90
1976;DHT22;988;48.016;7.800;2023-07-16T01:58:42;17.50;99.90
1976;DHT22;988;48.016;7.800;2023-07-16T02:01:07;17.50;99.90
1976;DHT22;988;48.016;7.800;2023-07-16T02:03:33;17.40;99.90
1976;DHT22;988;48.016;7.800;2023-07-16T02:05:58;17.40;99.90
1976;DHT22;988;48.016;7.800;2023-07-16T02:08:24;17.40;99.90
1976;DHT22;988;48.016;7.800;2023-07-16T02:10:49;17.40;99.90
1976;DHT22;988;48.016;7.800;2023-07-16T02:13:15;17.60;99.90
1976;DHT22;988;48.016;7.800;2023-07-16T02:15:41;17.60;99.90
1976;DHT22;988;48.016;7.800;2023-07-16T02:18:07;17.80;99.90
1976;DHT22;988;48.016;7.800;2023-07-16T02:20:32;17.70;99.90
1976;DHT22;988;48.016;7.800;2023-07-16T02:22:58;17.40;99.90
1976;DHT22;988;48.016;7.800;2023-07-16T02:25:23;17.40;99.90
1976;DHT22;988;48.016;7.800;2023-07-16T02:27:49;17.40;99.90
1976;DHT22;988;48.016;7.800;2023-07-16T02:30:15;17.50;99.90
1976;DHT22;988;48.016;7.800;2023-07-16T02:32:40;17.50;99.90
1976;DHT22;988;48.016;7.800;2023-07-16T02:35:06;17.60;99.90
1976;DHT22;988;48.016;7.800;2023-07-16T02:37:32;17.70;99.90
1976;DHT22;988;48.016;7.800;2023-07-16T02:39:58;17.80;99.90
1976;DHT22;988;48.016;7.800;2023-07-16T02:42:23;17.70;99.90
1976;DHT22;988;48.016;7.800;2023-07-16T02:44:49;17.90;99.90
1976;DHT22;988;48.016;7.800;2023-07-16T02:47:14;18.00;99.90
1976;DHT22;988;48.016;7.800;2023-07-16T02:49:40;18.00;99.90
1976;DHT22;988;48.016;7.800;2023-07-16T02:52:05;17.80;99.90
1976;DHT22;988;48.016;7.800;2023-07-16T02:54:31;17.80;99.90
1976;DHT22;988;48.016;7.800;2023-07-16T02:56:57;17.80;99.90
1976;DHT22;988;48.016;7.800;2023-07-16T02:59:22;18.10;99.90
1976;DHT22;988;48.016;7.800;2023-07-16T03:01:48;18.00;99.90
1976;DHT22;988;48.016;7.800;2023-07-16T03:04:13;18.00;99.90
1976;DHT22;988;48.016;7.800;2023-07-16T03:06:39;17.50;99.90
1976;DHT22;988;48.016;7.800;2023-07-16T03:09:04;17.70;99.90
1976;DHT22;988;48.016;7.800;2023-07-16T03:11:30;17.90;99.90
1976;DHT22;988;48.016;7.800;2023-07-16T03:13:55;17.90;99.90
1976;DHT22;988;48.016;7.800;2023-07-16T03:16:23;17.80;99.90
1976;DHT22;988;48.016;7.800;2023-07-16T03:18:48;17.70;99.90
1976;DHT22;988;48.016;7.800;2023-07-16T03:21:13;17.70;99.90
1976;DHT22;988;48.016;7.800;2023-07-16T03:23:39;17.60;99.90
1976;DHT22;988;48.016;7.800;2023-07-16T03:26:04;17.70;99.90
1976;DHT22;988;48.016;7.800;2023-07-16T03:28:30;17.90;99.90
1976;DHT22;988;48.016;7.800;2023-07-16T03:30:55;18.00;99.90
1976;DHT22;988;48.016;7.800;2023-07-16T03:33:21;18.10;99.90
1976;DHT22;988;48.016;7.800;2023-07-16T03:35:48;18.40;99.90
1976;DHT22;988;48.016;7.800;2023-07-16T03:38:14;18.30;99.90
1976;DHT22;988;48.016;7.800;2023-07-16T03:40:39;18.30;99.90
1976;DHT22;988;48.016;7.800;2023-07-16T03:43:05;18.50;99.90
1976;DHT22;988;48.016;7.800;2023-07-16T03:45:30;18.40;99.90
1976;DHT22;988;48.016;7.800;2023-07-16T03:47:56;18.30;99.90
1976;DHT22;988;48.016;7.800;2023-07-16T03:50:22;18.30;99.90
1976;DHT22;988;48.016;7.800;2023-07-16T03:52:47;18.30;99.90
1976;DHT22;988;48.016;7.800;2023-07-16T03:55:13;18.30;99.90
1976;DHT22;988;48.016;7.800;2023-07-16T03:57:38;18.40;99.90
1976;DHT22;988;48.016;7.800;2023-07-16T04:00:04;18.30;99.90
1976;DHT22;988;48.016;7.800;2023-07-16T04:02:33;18.30;99.90
1976;DHT22;988;48.016;7.800;2023-07-16T04:04:58;17.90;99.90
1976;DHT22;988;48.016;7.800;2023-07-16T04:07:23;17.70;99.90
1976;DHT22;988;48.016;7.800;2023-07-16T04:09:49;17.50;99.90
1976;DHT22;988;48.016;7.800;2023-07-16T04:12:15;17.60;99.90
1976;DHT22;988;48.016;7.800;2023-07-16T04:14:40;17.70;99.90
1976;DHT22;988;48.016;7.800;2023-07-16T04:17:06;17.80;99.90
1976;DHT22;988;48.016;7.800;2023-07-16T04:19:31;18.20;99.90
1976;DHT22;988;48.016;7.800;2023-07-16T04:21:57;18.30;99.90
1976;DHT22;988;48.016;7.800;2023-07-16T04:24:22;18.20;99.90
1976;DHT22;988;48.016;7.800;2023-07-16T04:26:49;18.00;99.90
1976;DHT22;988;48.016;7.800;2023-07-16T04:29:14;18.10;99.90
1976;DHT22;988;48.016;7.800;2023-07-16T04:31:41;18.30;99.90
1976;DHT22;988;48.016;7.800;2023-07-16T04:34:06;18.00;99.90
1976;DHT22;988;48.016;7.800;2023-07-16T04:36:32;17.90;99.90
1976;DHT22;988;48.016;7.800;2023-07-16T04:38:57;17.80;99.90
1976;DHT22;988;48.016;7.800;2023-07-16T04:41:22;17.90;99.90
1976;DHT22;988;48.016;7.800;2023-07-16T04:43:48;18.00;99.90
1976;DHT22;988;48.016;7.800;2023-07-16T04:46:13;18.20;99.90
1976;DHT22;988;48.016;7.800;2023-07-16T04:48:40;18.10;99.90
1976;DHT22;988;48.016;7.800;2023-07-16T04:51:06;18.00;99.90
1976;DHT22;988;48.016;7.800;2023-07-16T04:53:32;18.10;99.90
1976;DHT22;988;48.016;7.800;2023-07-16T04:55:57;18.40;99.90
1976;DHT22;988;48.016;7.800;2023-07-16T04:58:23;18.60;99.90
1976;DHT22;988;48.016;7.800;2023-07-16T05:00:48;18.40;99.90
1976;DHT22;988;48.016;7.800;2023-07-16T05:03:14;18.80;99.90
1976;DHT22;988;48.016;7.800;2023-07-16T05:05:40;19.00;99.90
1976;DHT22;988;48.016;7.800;2023-07-16T05:08:05;18.50;99.90
1976;DHT22;988;48.016;7.800;2023-07-16T05:10:31;18.30;99.90
1976;DHT22;988;48.016;7.800;2023-07-16T05:12:56;18.70;99.90
1976;DHT22;988;48.016;7.800;2023-07-16T05:15:22;18.90;99.90
1976;DHT22;988;48.016;7.800;2023-07-16T05:17:47;19.00;99.90
1976;DHT22;988;48.016;7.800;2023-07-16T05:20:13;18.80;99.90
1976;DHT22;988;48.016;7.800;2023-07-16T05:22:39;18.50;99.90
1976;DHT22;988;48.016;7.800;2023-07-16T05:25:04;18.70;99.90
1976;DHT22;988;48.016;7.800;2023-07-16T05:27:30;18.70;99.90
1976;DHT22;988;48.016;7.800;2023-07-16T05:29:55;18.60;99.90
1976;DHT22;988;48.016;7.800;2023-07-16T05:32:21;18.30;99.90
1976;DHT22;988;48.016;7.800;2023-07-16T05:34:47;18.60;99.90
1976;DHT22;988;48.016;7.800;2023-07-16T05:37:12;18.60;99.90
1976;DHT22;988;48.016;7.800;2023-07-16T05:39:38;18.50;99.90
1976;DHT22;988;48.016;7.800;2023-07-16T05:42:04;18.70;99.90
1976;DHT22;988;48.016;7.800;2023-07-16T05:44:29;18.20;99.90
1976;DHT22;988;48.016;7.800;2023-07-16T05:46:55;18.10;99.90
1976;DHT22;988;48.016;7.800;2023-07-16T05:49:20;18.00;99.90
1976;DHT22;988;48.016;7.800;2023-07-16T05:51:46;18.10;99.90
1976;DHT22;988;48.016;7.800;2023-07-16T05:54:11;18.10;99.90
1976;DHT22;988;48.016;7.800;2023-07-16T05:56:37;18.30;99.90
1976;DHT22;988;48.016;7.800;2023-07-16T05:59:02;18.40;99.90
1976;DHT22;988;48.016;7.800;2023-07-16T06:01:29;18.70;99.90
1976;DHT22;988;48.016;7.800;2023-07-16T06:03:55;19.10;99.90
1976;DHT22;988;48.016;7.800;2023-07-16T06:06:20;19.20;99.90
1976;DHT22;988;48.016;7.800;2023-07-16T06:08:46;18.90;99.90
1976;DHT22;988;48.016;7.800;2023-07-16T06:11:12;18.90;99.90
1976;DHT22;988;48.016;7.800;2023-07-16T06:13:37;19.30;99.90
1976;DHT22;988;48.016;7.800;2023-07-16T06:16:03;19.00;99.90
1976;DHT22;988;48.016;7.800;2023-07-16T06:18:28;19.20;99.90
1976;DHT22;988;48.016;7.800;2023-07-16T06:20:54;19.20;99.90
1976;DHT22;988;48.016;7.800;2023-07-16T06:23:20;19.00;99.90
1976;DHT22;988;48.016;7.800;2023-07-16T06:25:46;19.10;99.90
1976;DHT22;988;48.016;7.800;2023-07-16T06:28:15;18.90;99.90
1976;DHT22;988;48.016;7.800;2023-07-16T06:30:41;19.00;99.90
1976;DHT22;988;48.016;7.800;2023-07-16T06:33:06;19.10;99.90
1976;DHT22;988;48.016;7.800;2023-07-16T06:35:32;18.90;99.90
1976;DHT22;988;48.016;7.800;2023-07-16T06:37:57;19.10;99.90
1976;DHT22;988;48.016;7.800;2023-07-16T06:40:23;19.30;99.90
1976;DHT22;988;48.016;7.800;2023-07-16T06:42:49;19.60;99.90
1976;DHT22;988;48.016;7.800;2023-07-16T06:45:14;19.40;99.90
1976;DHT22;988;48.016;7.800;2023-07-16T06:47:40;19.60;99.90
1976;DHT22;988;48.016;7.800;2023-07-16T06:50:05;19.50;99.90
1976;DHT22;988;48.016;7.800;2023-07-16T06:52:31;19.60;99.90
1976;DHT22;988;48.016;7.800;2023-07-16T06:54:56;19.70;99.90
1976;DHT22;988;48.016;7.800;2023-07-16T06:57:22;19.80;99.90
1976;DHT22;988;48.016;7.800;2023-07-16T06:59:48;19.60;99.90
1976;DHT22;988;48.016;7.800;2023-07-16T07:02:13;19.90;99.90
1976;DHT22;988;48.016;7.800;2023-07-16T07:04:39;19.90;99.90
1976;DHT22;988;48.016;7.800;2023-07-16T07:07:04;20.10;99.90
1976;DHT22;988;48.016;7.800;2023-07-16T07:09:30;20.70;99.90
1976;DHT22;988;48.016;7.800;2023-07-16T07:11:55;20.30;99.90
1976;DHT22;988;48.016;7.800;2023-07-16T07:14:21;20.60;99.90
1976;DHT22;988;48.016;7.800;2023-07-16T07:16:46;20.40;99.90
1976;DHT22;988;48.016;7.800;2023-07-16T07:19:12;20.30;99.90
1976;DHT22;988;48.016;7.800;2023-07-16T07:21:37;21.10;99.90
1976;DHT22;988;48.016;7.800;2023-07-16T07:24:03;21.30;99.90
1976;DHT22;988;48.016;7.800;2023-07-16T07:26:28;21.40;99.90
1976;DHT22;988;48.016;7.800;2023-07-16T07:28:54;21.60;99.90
1976;DHT22;988;48.016;7.800;2023-07-16T07:31:19;21.20;99.90
1976;DHT22;988;48.016;7.800;2023-07-16T07:33:45;21.20;99.90
1976;DHT22;988;48.016;7.800;2023-07-16T07:36:10;21.30;99.90
1976;DHT22;988;48.016;7.800;2023-07-16T07:38:36;20.90;99.90
1976;DHT22;988;48.016;7.800;2023-07-16T07:41:01;21.00;99.90
1976;DHT22;988;48.016;7.800;2023-07-16T07:43:27;20.90;99.90
1976;DHT22;988;48.016;7.800;2023-07-16T07:45:52;21.70;99.90
1976;DHT22;988;48.016;7.800;2023-07-16T07:48:18;21.50;99.90
1976;DHT22;988;48.016;7.800;2023-07-16T07:50:45;22.90;99.90
1976;DHT22;988;48.016;7.800;2023-07-16T07:53:11;23.00;99.90
1976;DHT22;988;48.016;7.800;2023-07-16T07:55:36;22.60;99.90
1976;DHT22;988;48.016;7.800;2023-07-16T07:58:02;22.40;99.90
1976;DHT22;988;48.016;7.800;2023-07-16T08:00:27;23.50;99.90
1976;DHT22;988;48.016;7.800;2023-07-16T08:02:53;24.20;99.90
1976;DHT22;988;48.016;7.800;2023-07-16T08:05:18;23.20;99.90
1976;DHT22;988;48.016;7.800;2023-07-16T08:07:44;23.60;99.90
1976;DHT22;988;48.016;7.800;2023-07-16T08:10:10;22.40;99.90
1976;DHT22;988;48.016;7.800;2023-07-16T08:12:36;22.40;99.90
1976;DHT22;988;48.016;7.800;2023-07-16T08:15:02;22.90;99.90
1976;DHT22;988;48.016;7.800;2023-07-16T08:17:27;23.50;99.90
1976;DHT22;988;48.016;7.800;2023-07-16T08:19:53;23.60;99.90
1976;DHT22;988;48.016;7.800;2023-07-16T08:22:18;23.70;99.90
1976;DHT22;988;48.016;7.800;2023-07-16T08:24:44;22.50;99.90
1976;DHT22;988;48.016;7.800;2023-07-16T08:27:09;23.40;99.90
1976;DHT22;988;48.016;7.800;2023-07-16T08:29:35;24.60;99.90
1976;DHT22;988;48.016;7.800;2023-07-16T08:32:01;25.70;99.90
1976;DHT22;988;48.016;7.800;2023-07-16T08:34:27;26.00;99.90
1976;DHT22;988;48.016;7.800;2023-07-16T08:36:54;24.20;99.90
1976;DHT22;988;48.016;7.800;2023-07-16T08:39:20;24.60;99.90
1976;DHT22;988;48.016;7.800;2023-07-16T08:41:46;24.90;99.90
1976;DHT22;988;48.016;7.800;2023-07-16T08:44:11;23.90;99.90
1976;DHT22;988;48.016;7.800;2023-07-16T08:46:37;24.40;99.90
1976;DHT22;988;48.016;7.800;2023-07-16T08:49:03;25.10;99.90
1976;DHT22;988;48.016;7.800;2023-07-16T08:51:30;25.00;99.90
1976;DHT22;988;48.016;7.800;2023-07-16T08:53:55;25.50;99.90
1976;DHT22;988;48.016;7.800;2023-07-16T08:56:21;25.70;99.90
1976;DHT22;988;48.016;7.800;2023-07-16T08:58:46;24.60;99.90
1976;DHT22;988;48.016;7.800;2023-07-16T09:01:12;23.50;99.90
1976;DHT22;988;48.016;7.800;2023-07-16T09:03:38;25.70;99.90
1976;DHT22;988;48.016;7.800;2023-07-16T09:06:04;27.30;99.90
1976;DHT22;988;48.016;7.800;2023-07-16T09:08:29;27.30;99.90
1976;DHT22;988;48.016;7.800;2023-07-16T09:10:55;27.00;99.90
1976;DHT22;988;48.016;7.800;2023-07-16T09:13:21;28.20;99.90
1976;DHT22;988;48.016;7.800;2023-07-16T09:15:56;27.90;99.90
1976;DHT22;988;48.016;7.800;2023-07-16T09:18:25;26.50;98.50
1976;DHT22;988;48.016;7.800;2023-07-16T09:20:57;26.00;99.00
1976;DHT22;988;48.016;7.800;2023-07-16T09:23:25;27.80;97.50
1976;DHT22;988;48.016;7.800;2023-07-16T09:25:54;28.40;95.50
1976;DHT22;988;48.016;7.800;2023-07-16T09:28:21;27.80;94.20
1976;DHT22;988;48.016;7.800;2023-07-16T09:30:47;28.90;93.30
1976;DHT22;988;48.016;7.800;2023-07-16T09:33:18;30.30;77.90
1976;DHT22;988;48.016;7.800;2023-07-16T09:35:44;29.70;82.60
1976;DHT22;988;48.016;7.800;2023-07-16T09:38:10;29.90;79.60
1976;DHT22;988;48.016;7.800;2023-07-16T09:40:38;29.30;77.90
1976;DHT22;988;48.016;7.800;2023-07-16T09:43:05;29.00;77.50
1976;DHT22;988;48.016;7.800;2023-07-16T09:45:31;29.40;81.20
1976;DHT22;988;48.016;7.800;2023-07-16T09:47:56;30.60;71.30
1976;DHT22;988;48.016;7.800;2023-07-16T09:50:26;30.50;68.10
1976;DHT22;988;48.016;7.800;2023-07-16T09:52:52;30.90;65.40
1976;DHT22;988;48.016;7.800;2023-07-16T09:55:18;33.00;62.60
1976;DHT22;988;48.016;7.800;2023-07-16T09:57:45;32.80;60.00
1976;DHT22;988;48.016;7.800;2023-07-16T10:00:11;34.50;55.90
1976;DHT22;988;48.016;7.800;2023-07-16T10:02:37;34.20;56.10
1976;DHT22;988;48.016;7.800;2023-07-16T10:07:38;32.40;55.20
1976;DHT22;988;48.016;7.800;2023-07-16T10:10:07;31.50;56.10
1976;DHT22;988;48.016;7.800;2023-07-16T10:12:32;32.20;55.50
1976;DHT22;988;48.016;7.800;2023-07-16T10:14:58;31.60;56.90
1976;DHT22;988;48.016;7.800;2023-07-16T10:17:24;30.20;58.90
1976;DHT22;988;48.016;7.800;2023-07-16T10:20:00;30.40;62.40
1976;DHT22;988;48.016;7.800;2023-07-16T10:22:42;31.00;60.60
1976;DHT22;988;48.016;7.800;2023-07-16T10:27:43;29.90;61.90
1976;DHT22;988;48.016;7.800;2023-07-16T10:30:09;29.20;66.30
1976;DHT22;988;48.016;7.800;2023-07-16T10:32:34;29.60;65.30
1976;DHT22;988;48.016;7.800;2023-07-16T10:35:00;30.50;64.40
1976;DHT22;988;48.016;7.800;2023-07-16T10:37:27;31.70;59.50
1976;DHT22;988;48.016;7.800;2023-07-16T10:39:53;31.70;59.90
1976;DHT22;988;48.016;7.800;2023-07-16T10:42:23;31.90;59.20
1976;DHT22;988;48.016;7.800;2023-07-16T10:44:53;31.60;59.50
1976;DHT22;988;48.016;7.800;2023-07-16T10:47:31;30.70;60.10
1976;DHT22;988;48.016;7.800;2023-07-16T10:49:57;30.10;63.30
1976;DHT22;988;48.016;7.800;2023-07-16T10:52:23;32.30;61.90
1976;DHT22;988;48.016;7.800;2023-07-16T10:54:49;33.10;56.10
1976;DHT22;988;48.016;7.800;2023-07-16T10:57:15;32.60;57.80
1976;DHT22;988;48.016;7.800;2023-07-16T10:59:41;33.20;57.20
1976;DHT22;988;48.016;7.800;2023-07-16T11:02:08;33.70;56.60
1976;DHT22;988;48.016;7.800;2023-07-16T11:04:35;33.30;56.80
1976;DHT22;988;48.016;7.800;2023-07-16T11:07:04;34.90;55.50
1976;DHT22;988;48.016;7.800;2023-07-16T11:09:31;35.20;53.60
1976;DHT22;988;48.016;7.800;2023-07-16T11:12:04;36.20;50.40
1976;DHT22;988;48.016;7.800;2023-07-16T11:14:30;35.80;50.60
1976;DHT22;988;48.016;7.800;2023-07-16T11:17:03;35.10;50.70
1976;DHT22;988;48.016;7.800;2023-07-16T11:19:30;35.80;52.80
1976;DHT22;988;48.016;7.800;2023-07-16T11:21:56;37.40;48.20
1976;DHT22;988;48.016;7.800;2023-07-16T11:24:21;36.90;49.00
1976;DHT22;988;48.016;7.800;2023-07-16T11:26:50;37.20;48.80
1976;DHT22;988;48.016;7.800;2023-07-16T11:29:16;35.70;48.90
1976;DHT22;988;48.016;7.800;2023-07-16T11:31:42;34.00;51.40
1976;DHT22;988;48.016;7.800;2023-07-16T11:34:07;34.20;51.10
1976;DHT22;988;48.016;7.800;2023-07-16T11:36:33;32.50;54.90
1976;DHT22;988;48.016;7.800;2023-07-16T11:39:02;31.00;58.00
1976;DHT22;988;48.016;7.800;2023-07-16T11:41:30;29.90;59.40
1976;DHT22;988;48.016;7.800;2023-07-16T11:44:02;31.40;59.20
1976;DHT22;988;48.016;7.800;2023-07-16T11:46:31;32.70;55.20
1976;DHT22;988;48.016;7.800;2023-07-16T11:48:58;31.40;57.60
1976;DHT22;988;48.016;7.800;2023-07-16T11:51:24;32.30;58.80
1976;DHT22;988;48.016;7.800;2023-07-16T11:53:49;32.20;54.80
1976;DHT22;988;48.016;7.800;2023-07-16T11:56:15;33.00;55.80
1976;DHT22;988;48.016;7.800;2023-07-16T11:58:40;34.20;52.60
1976;DHT22;988;48.016;7.800;2023-07-16T12:01:06;34.40;51.90
1976;DHT22;988;48.016;7.800;2023-07-16T12:03:32;35.00;50.60
1976;DHT22;988;48.016;7.800;2023-07-16T12:05:57;34.40;50.80
1976;DHT22;988;48.016;7.800;2023-07-16T12:08:23;33.70;51.60
1976;DHT22;988;48.016;7.800;2023-07-16T12:10:48;33.40;52.60
1976;DHT22;988;48.016;7.800;2023-07-16T12:13:14;33.00;51.10
1976;DHT22;988;48.016;7.800;2023-07-16T12:15:39;34.40;50.40
1976;DHT22;988;48.016;7.800;2023-07-16T12:18:05;35.20;51.40
1976;DHT22;988;48.016;7.800;2023-07-16T12:20:30;34.50;50.60
1976;DHT22;988;48.016;7.800;2023-07-16T12:22:55;33.20;51.70
1976;DHT22;988;48.016;7.800;2023-07-16T12:25:21;32.80;54.40
1976;DHT22;988;48.016;7.800;2023-07-16T12:27:46;33.10;53.90
1976;DHT22;988;48.016;7.800;2023-07-16T12:30:12;33.40;52.30
1976;DHT22;988;48.016;7.800;2023-07-16T12:32:37;33.20;53.70
1976;DHT22;988;48.016;7.800;2023-07-16T12:35:03;33.60;54.30
1976;DHT22;988;48.016;7.800;2023-07-16T12:37:29;34.40;52.10
1976;DHT22;988;48.016;7.800;2023-07-16T12:39:55;34.20;52.40
1976;DHT22;988;48.016;7.800;2023-07-16T12:42:20;35.30;50.50
1976;DHT22;988;48.016;7.800;2023-07-16T12:44:46;34.00;52.90
1976;DHT22;988;48.016;7.800;2023-07-16T12:47:11;33.60;51.50
1976;DHT22;988;48.016;7.800;2023-07-16T12:49:37;32.30;53.90
1976;DHT22;988;48.016;7.800;2023-07-16T12:52:02;30.20;58.60
1976;DHT22;988;48.016;7.800;2023-07-16T12:54:28;31.70;56.90
1976;DHT22;988;48.016;7.800;2023-07-16T12:56:54;31.00;59.10
1976;DHT22;988;48.016;7.800;2023-07-16T12:59:20;30.10;61.40
1976;DHT22;988;48.016;7.800;2023-07-16T13:01:45;30.00;62.00
1976;DHT22;988;48.016;7.800;2023-07-16T13:04:11;30.30;59.90
1976;DHT22;988;48.016;7.800;2023-07-16T13:06:36;30.70;57.50
1976;DHT22;988;48.016;7.800;2023-07-16T13:09:02;30.20;58.90
1976;DHT22;988;48.016;7.800;2023-07-16T13:11:27;30.70;57.50
1976;DHT22;988;48.016;7.800;2023-07-16T13:13:53;31.10;58.50
1976;DHT22;988;48.016;7.800;2023-07-16T13:16:18;31.40;59.10
1976;DHT22;988;48.016;7.800;2023-07-16T13:18:44;30.90;56.30
1976;DHT22;988;48.016;7.800;2023-07-16T13:21:09;31.00;56.90
1976;DHT22;988;48.016;7.800;2023-07-16T13:23:35;30.30;58.30
1976;DHT22;988;48.016;7.800;2023-07-16T13:26:01;29.40;59.50
1976;DHT22;988;48.016;7.800;2023-07-16T13:28:26;29.30;61.90
1976;DHT22;988;48.016;7.800;2023-07-16T13:30:52;29.20;59.20
1976;DHT22;988;48.016;7.800;2023-07-16T13:33:17;28.90;60.70
1976;DHT22;988;48.016;7.800;2023-07-16T13:35:44;28.50;61.20
1976;DHT22;988;48.016;7.800;2023-07-16T13:38:09;29.00;61.50
1976;DHT22;988;48.016;7.800;2023-07-16T13:40:35;29.40;63.20
1976;DHT22;988;48.016;7.800;2023-07-16T13:43:00;29.40;58.20
1976;DHT22;988;48.016;7.800;2023-07-16T13:45:26;29.40;59.00
1976;DHT22;988;48.016;7.800;2023-07-16T13:47:51;29.50;58.50
1976;DHT22;988;48.016;7.800;2023-07-16T13:50:17;29.50;57.90
1976;DHT22;988;48.016;7.800;2023-07-16T13:52:44;30.00;56.00
1976;DHT22;988;48.016;7.800;2023-07-16T13:55:09;29.80;55.90
1976;DHT22;988;48.016;7.800;2023-07-16T13:57:36;29.30;57.30
1976;DHT22;988;48.016;7.800;2023-07-16T14:00:02;30.30;58.10
1976;DHT22;988;48.016;7.800;2023-07-16T14:02:29;30.60;54.30
1976;DHT22;988;48.016;7.800;2023-07-16T14:04:54;29.70;53.60
1976;DHT22;988;48.016;7.800;2023-07-16T14:07:25;29.70;55.40
1976;DHT22;988;48.016;7.800;2023-07-16T14:09:51;30.10;55.50
1976;DHT22;988;48.016;7.800;2023-07-16T14:12:16;30.00;57.00
1976;DHT22;988;48.016;7.800;2023-07-16T14:14:42;30.40;55.50
1976;DHT22;988;48.016;7.800;2023-07-16T14:17:07;29.10;55.30
1976;DHT22;988;48.016;7.800;2023-07-16T14:19:33;29.20;58.20
1976;DHT22;988;48.016;7.800;2023-07-16T14:21:58;29.80;58.10
1976;DHT22;988;48.016;7.800;2023-07-16T14:24:24;29.70;55.40
1976;DHT22;988;48.016;7.800;2023-07-16T14:26:49;29.80;54.70
1976;DHT22;988;48.016;7.800;2023-07-16T14:29:15;30.00;53.60
1976;DHT22;988;48.016;7.800;2023-07-16T14:31:40;29.70;52.90
1976;DHT22;988;48.016;7.800;2023-07-16T14:34:06;29.50;53.80
1976;DHT22;988;48.016;7.800;2023-07-16T14:36:31;29.10;54.70
1976;DHT22;988;48.016;7.800;2023-07-16T14:38:57;29.70;56.80
1976;DHT22;988;48.016;7.800;2023-07-16T14:41:23;30.30;55.10
1976;DHT22;988;48.016;7.800;2023-07-16T14:43:48;29.90;54.90
1976;DHT22;988;48.016;7.800;2023-07-16T14:46:15;29.70;55.50
1976;DHT22;988;48.016;7.800;2023-07-16T14:48:42;29.60;56.50
1976;DHT22;988;48.016;7.800;2023-07-16T14:51:08;30.40;56.20
1976;DHT22;988;48.016;7.800;2023-07-16T14:53:33;29.90;55.10
1976;DHT22;988;48.016;7.800;2023-07-16T14:55:59;29.20;57.60
1976;DHT22;988;48.016;7.800;2023-07-16T14:58:24;29.60;55.70
1976;DHT22;988;48.016;7.800;2023-07-16T15:00:50;29.40;55.80
1976;DHT22;988;48.016;7.800;2023-07-16T15:03:16;29.50;55.30
1976;DHT22;988;48.016;7.800;2023-07-16T15:05:41;29.40;53.50
1976;DHT22;988;48.016;7.800;2023-07-16T15:08:07;29.40;56.00
1976;DHT22;988;48.016;7.800;2023-07-16T15:10:32;29.00;56.20
1976;DHT22;988;48.016;7.800;2023-07-16T15:12:58;29.40;54.30
1976;DHT22;988;48.016;7.800;2023-07-16T15:15:24;29.10;57.10
1976;DHT22;988;48.016;7.800;2023-07-16T15:17:49;29.30;56.40
1976;DHT22;988;48.016;7.800;2023-07-16T15:20:15;29.40;54.80
1976;DHT22;988;48.016;7.800;2023-07-16T15:22:40;29.00;56.70
1976;DHT22;988;48.016;7.800;2023-07-16T15:25:06;29.00;56.50
1976;DHT22;988;48.016;7.800;2023-07-16T15:27:32;29.00;58.80
1976;DHT22;988;48.016;7.800;2023-07-16T15:29:57;28.90;56.30
1976;DHT22;988;48.016;7.800;2023-07-16T15:32:23;28.80;57.40
1976;DHT22;988;48.016;7.800;2023-07-16T15:34:49;28.70;56.90
1976;DHT22;988;48.016;7.800;2023-07-16T15:37:14;29.00;57.90
1976;DHT22;988;48.016;7.800;2023-07-16T15:39:40;29.10;56.10
1976;DHT22;988;48.016;7.800;2023-07-16T15:42:05;27.60;57.40
1976;DHT22;988;48.016;7.800;2023-07-16T15:44:31;27.80;57.00
1976;DHT22;988;48.016;7.800;2023-07-16T15:46:57;27.40;58.40
1976;DHT22;988;48.016;7.800;2023-07-16T15:49:25;27.20;57.70
1976;DHT22;988;48.016;7.800;2023-07-16T15:51:50;27.30;60.00
1976;DHT22;988;48.016;7.800;2023-07-16T15:54:16;27.30;60.20
1976;DHT22;988;48.016;7.800;2023-07-16T15:56:43;27.70;61.50
1976;DHT22;988;48.016;7.800;2023-07-16T15:59:08;27.70;59.80
1976;DHT22;988;48.016;7.800;2023-07-16T16:01:37;27.00;59.30
1976;DHT22;988;48.016;7.800;2023-07-16T16:04:02;27.00;61.40
1976;DHT22;988;48.016;7.800;2023-07-16T16:06:28;27.10;60.00
1976;DHT22;988;48.016;7.800;2023-07-16T16:08:53;27.00;62.10
1976;DHT22;988;48.016;7.800;2023-07-16T16:11:19;27.10;62.70
1976;DHT22;988;48.016;7.800;2023-07-16T16:13:46;27.00;61.80
1976;DHT22;988;48.016;7.800;2023-07-16T16:16:11;27.00;64.00
1976;DHT22;988;48.016;7.800;2023-07-16T16:18:39;27.10;64.00
1976;DHT22;988;48.016;7.800;2023-07-16T16:21:04;27.10;63.30